sensor_id;sensor_type;location;lat;lon;timestamp;P1;durP1;ratioP1;P2;durP2;ratioP2
75135;SDS011;63707;52.212;9.540;2024-01-27T00:01:12;17.00;;;3.25;;
75135;SDS011;63707;52.212;9.540;2024-01-27T00:03:38;23.13;;;2.83;;
75135;SDS011;63707;52.212;9.540;2024-01-27T00:06:03;22.05;;;3.08;;
75135;SDS011;63707;52.212;9.540;2024-01-27T00:08:29;22.15;;;3.10;;
75135;SDS011;63707;52.212;9.540;2024-01-27T00:10:54;19.10;;;2.75;;
75135;SDS011;63707;52.212;9.540;2024-01-27T00:13:20;20.67;;;3.15;;
75135;SDS011;63707;52.212;9.540;2024-01-27T00:15:47;18.15;;;3.47;;
75135;SDS011;63707;52.212;9.540;2024-01-27T00:18:12;22.70;;;3.83;;
75135;SDS011;63707;52.212;9.540;2024-01-27T00:20:39;22.20;;;3.30;;
75135;SDS011;63707;52.212;9.540;2024-01-27T00:23:05;17.40;;;3.00;;
75135;SDS011;63707;52.212;9.540;2024-01-27T00:25:31;33.50;;;3.50;;
75135;SDS011;63707;52.212;9.540;2024-01-27T00:27:56;25.98;;;3.55;;
75135;SDS011;63707;52.212;9.540;2024-01-27T00:30:22;21.10;;;3.30;;
75135;SDS011;63707;52.212;9.540;2024-01-27T00:32:49;25.88;;;4.95;;
75135;SDS011;63707;52.212;9.540;2024-01-27T00:35:14;33.75;;;4.82;;
75135;SDS011;63707;52.212;9.540;2024-01-27T00:37:40;22.58;;;2.90;;
75135;SDS011;63707;52.212;9.540;2024-01-27T00:40:07;24.83;;;3.55;;
75135;SDS011;63707;52.212;9.540;2024-01-27T00:42:33;23.83;;;3.00;;
75135;SDS011;63707;52.212;9.540;2024-01-27T00:44:59;24.77;;;3.53;;
75135;SDS011;63707;52.212;9.540;2024-01-27T00:47:24;29.20;;;4.28;;
75135;SDS011;63707;52.212;9.540;2024-01-27T00:49:51;34.20;;;4.32;;
75135;SDS011;63707;52.212;9.540;2024-01-27T00:52:19;30.30;;;4.03;;
75135;SDS011;63707;52.212;9.540;2024-01-27T00:54:44;26.83;;;3.60;;
75135;SDS011;63707;52.212;9.540;2024-01-27T00:57:10;31.35;;;5.00;;
75135;SDS011;63707;52.212;9.540;2024-01-27T00:59:35;29.58;;;4.07;;
75135;SDS011;63707;52.212;9.540;2024-01-27T01:02:01;22.75;;;3.40;;
75135;SDS011;63707;52.212;9.540;2024-01-27T01:04:27;24.73;;;4.70;;
75135;SDS011;63707;52.212;9.540;2024-01-27T01:06:54;29.70;;;4.25;;
75135;SDS011;63707;52.212;9.540;2024-01-27T01:09:19;23.10;;;2.85;;
75135;SDS011;63707;52.212;9.540;2024-01-27T01:11:45;27.02;;;3.80;;
75135;SDS011;63707;52.212;9.540;2024-01-27T01:14:10;25.83;;;3.15;;
75135;SDS011;63707;52.212;9.540;2024-01-27T01:16:36;24.77;;;4.28;;
75135;SDS011;63707;52.212;9.540;2024-01-27T01:19:01;23.42;;;2.92;;
75135;SDS011;63707;52.212;9.540;2024-01-27T01:21:27;24.98;;;3.08;;
75135;SDS011;63707;52.212;9.540;2024-01-27T01:23:54;16.92;;;2.67;;
75135;SDS011;63707;52.212;9.540;2024-01-27T01:26:20;22.83;;;2.90;;
75135;SDS011;63707;52.212;9.540;2024-01-27T01:28:46;36.38;;;3.70;;
75135;SDS011;63707;52.212;9.540;2024-01-27T01:31:11;18.58;;;2.85;;
75135;SDS011;63707;52.212;9.540;2024-01-27T01:33:37;21.85;;;3.28;;
75135;SDS011;63707;52.212;9.540;2024-01-27T01:36:02;19.70;;;3.65;;
75135;SDS011;63707;52.212;9.540;2024-01-27T01:38:28;22.27;;;2.70;;
75135;SDS011;63707;52.212;9.540;2024-01-27T01:40:55;26.35;;;3.20;;
75135;SDS011;63707;52.212;9.540;2024-01-27T01:43:20;17.02;;;3.33;;
75135;SDS011;63707;52.212;9.540;2024-01-27T01:45:46;22.02;;;3.05;;
75135;SDS011;63707;52.212;9.540;2024-01-27T01:48:11;23.15;;;3.55;;
75135;SDS011;63707;52.212;9.540;2024-01-27T01:50:37;24.17;;;3.92;;
75135;SDS011;63707;52.212;9.540;2024-01-27T01:53:03;25.15;;;3.17;;
75135;SDS011;63707;52.212;9.540;2024-01-27T01:55:29;14.95;;;2.80;;
75135;SDS011;63707;52.212;9.540;2024-01-27T01:57:56;27.88;;;4.15;;
75135;SDS011;63707;52.212;9.540;2024-01-27T02:00:21;26.40;;;4.15;;
75135;SDS011;63707;52.212;9.540;2024-01-27T02:02:47;24.70;;;3.95;;
75135;SDS011;63707;52.212;9.540;2024-01-27T02:05:13;33.88;;;3.95;;
75135;SDS011;63707;52.212;9.540;2024-01-27T02:07:39;28.20;;;5.53;;
75135;SDS011;63707;52.212;9.540;2024-01-27T02:10:06;33.75;;;3.70;;
75135;SDS011;63707;52.212;9.540;2024-01-27T02:12:37;25.10;;;3.97;;
75135;SDS011;63707;52.212;9.540;2024-01-27T02:15:04;27.15;;;3.72;;
75135;SDS011;63707;52.212;9.540;2024-01-27T02:17:30;30.73;;;4.78;;
75135;SDS011;63707;52.212;9.540;2024-01-27T02:19:55;30.08;;;3.80;;
75135;SDS011;63707;52.212;9.540;2024-01-27T02:22:21;26.90;;;4.20;;
75135;SDS011;63707;52.212;9.540;2024-01-27T02:24:48;22.50;;;4.18;;
75135;SDS011;63707;52.212;9.540;2024-01-27T02:27:13;22.58;;;4.63;;
75135;SDS011;63707;52.212;9.540;2024-01-27T02:29:39;23.55;;;4.95;;
75135;SDS011;63707;52.212;9.540;2024-01-27T02:32:05;31.73;;;4.78;;
75135;SDS011;63707;52.212;9.540;2024-01-27T02:34:30;31.30;;;5.43;;
75135;SDS011;63707;52.212;9.540;2024-01-27T02:36:56;24.30;;;4.07;;
75135;SDS011;63707;52.212;9.540;2024-01-27T02:39:21;27.52;;;4.88;;
75135;SDS011;63707;52.212;9.540;2024-01-27T02:41:48;20.92;;;4.32;;
75135;SDS011;63707;52.212;9.540;2024-01-27T02:44:14;25.15;;;3.90;;
75135;SDS011;63707;52.212;9.540;2024-01-27T02:46:39;25.17;;;5.45;;
75135;SDS011;63707;52.212;9.540;2024-01-27T02:49:07;26.73;;;4.60;;
75135;SDS011;63707;52.212;9.540;2024-01-27T02:51:32;23.33;;;4.65;;
75135;SDS011;63707;52.212;9.540;2024-01-27T02:53:58;33.58;;;4.47;;
75135;SDS011;63707;52.212;9.540;2024-01-27T02:56:23;27.20;;;4.07;;
75135;SDS011;63707;52.212;9.540;2024-01-27T02:58:50;24.73;;;4.28;;
75135;SDS011;63707;52.212;9.540;2024-01-27T03:01:16;28.02;;;5.47;;
75135;SDS011;63707;52.212;9.540;2024-01-27T03:03:41;24.42;;;4.70;;
75135;SDS011;63707;52.212;9.540;2024-01-27T03:06:07;26.88;;;4.88;;
75135;SDS011;63707;52.212;9.540;2024-01-27T03:08:32;21.30;;;4.63;;
75135;SDS011;63707;52.212;9.540;2024-01-27T03:10:58;45.70;;;6.50;;
75135;SDS011;63707;52.212;9.540;2024-01-27T03:13:23;25.13;;;5.00;;
75135;SDS011;63707;52.212;9.540;2024-01-27T03:15:50;27.58;;;4.40;;
75135;SDS011;63707;52.212;9.540;2024-01-27T03:18:17;26.70;;;5.75;;
75135;SDS011;63707;52.212;9.540;2024-01-27T03:20:43;34.65;;;5.05;;
75135;SDS011;63707;52.212;9.540;2024-01-27T03:23:08;27.02;;;4.75;;
75135;SDS011;63707;52.212;9.540;2024-01-27T03:25:34;27.73;;;4.97;;
75135;SDS011;63707;52.212;9.540;2024-01-27T03:27:59;25.08;;;5.47;;
75135;SDS011;63707;52.212;9.540;2024-01-27T03:30:26;33.65;;;4.85;;
75135;SDS011;63707;52.212;9.540;2024-01-27T03:32:53;31.83;;;5.32;;
75135;SDS011;63707;52.212;9.540;2024-01-27T03:35:18;27.83;;;5.95;;
75135;SDS011;63707;52.212;9.540;2024-01-27T03:37:43;26.75;;;5.15;;
75135;SDS011;63707;52.212;9.540;2024-01-27T03:40:10;26.83;;;5.00;;
75135;SDS011;63707;52.212;9.540;2024-01-27T03:42:37;37.92;;;5.45;;
75135;SDS011;63707;52.212;9.540;2024-01-27T03:45:02;24.70;;;4.70;;
75135;SDS011;63707;52.212;9.540;2024-01-27T03:47:28;28.75;;;5.50;;
75135;SDS011;63707;52.212;9.540;2024-01-27T03:49:55;25.00;;;5.07;;
75135;SDS011;63707;52.212;9.540;2024-01-27T03:52:20;22.98;;;4.50;;
75135;SDS011;63707;52.212;9.540;2024-01-27T03:54:46;21.20;;;4.72;;
75135;SDS011;63707;52.212;9.540;2024-01-27T03:57:11;36.55;;;6.18;;
75135;SDS011;63707;52.212;9.540;2024-01-27T03:59:37;25.48;;;5.28;;
75135;SDS011;63707;52.212;9.540;2024-01-27T04:02:05;30.55;;;5.80;;
75135;SDS011;63707;52.212;9.540;2024-01-27T04:04:30;33.03;;;5.78;;
75135;SDS011;63707;52.212;9.540;2024-01-27T04:06:57;24.92;;;5.05;;
75135;SDS011;63707;52.212;9.540;2024-01-27T04:09:23;26.02;;;5.07;;
75135;SDS011;63707;52.212;9.540;2024-01-27T04:11:49;21.25;;;5.20;;
75135;SDS011;63707;52.212;9.540;2024-01-27T04:14:14;27.15;;;4.85;;
75135;SDS011;63707;52.212;9.540;2024-01-27T04:16:40;25.48;;;4.35;;
75135;SDS011;63707;52.212;9.540;2024-01-27T04:19:05;27.92;;;5.75;;
75135;SDS011;63707;52.212;9.540;2024-01-27T04:21:31;20.00;;;4.28;;
75135;SDS011;63707;52.212;9.540;2024-01-27T04:23:58;35.97;;;5.57;;
75135;SDS011;63707;52.212;9.540;2024-01-27T04:26:23;24.75;;;4.85;;
75135;SDS011;63707;52.212;9.540;2024-01-27T04:28:49;21.13;;;4.40;;
75135;SDS011;63707;52.212;9.540;2024-01-27T04:31:14;28.35;;;5.68;;
75135;SDS011;63707;52.212;9.540;2024-01-27T04:33:40;27.10;;;5.30;;
75135;SDS011;63707;52.212;9.540;2024-01-27T04:36:05;24.75;;;4.57;;
75135;SDS011;63707;52.212;9.540;2024-01-27T04:38:35;22.38;;;4.80;;
75135;SDS011;63707;52.212;9.540;2024-01-27T04:41:02;28.55;;;4.80;;
75135;SDS011;63707;52.212;9.540;2024-01-27T04:43:28;31.40;;;6.97;;
75135;SDS011;63707;52.212;9.540;2024-01-27T04:45:53;30.08;;;4.82;;
75135;SDS011;63707;52.212;9.540;2024-01-27T04:48:19;17.45;;;3.67;;
75135;SDS011;63707;52.212;9.540;2024-01-27T04:50:45;29.48;;;4.78;;
75135;SDS011;63707;52.212;9.540;2024-01-27T04:53:11;20.23;;;4.05;;
75135;SDS011;63707;52.212;9.540;2024-01-27T04:55:37;28.52;;;4.88;;
75135;SDS011;63707;52.212;9.540;2024-01-27T04:58:04;27.10;;;3.83;;
75135;SDS011;63707;52.212;9.540;2024-01-27T05:00:30;25.33;;;4.22;;
75135;SDS011;63707;52.212;9.540;2024-01-27T05:02:55;31.65;;;4.75;;
75135;SDS011;63707;52.212;9.540;2024-01-27T05:05:22;29.83;;;4.90;;
75135;SDS011;63707;52.212;9.540;2024-01-27T05:07:47;30.92;;;4.97;;
75135;SDS011;63707;52.212;9.540;2024-01-27T05:10:14;33.33;;;4.93;;
75135;SDS011;63707;52.212;9.540;2024-01-27T05:12:40;32.30;;;4.47;;
75135;SDS011;63707;52.212;9.540;2024-01-27T05:15:07;32.90;;;5.35;;
75135;SDS011;63707;52.212;9.540;2024-01-27T05:17:35;25.38;;;4.60;;
75135;SDS011;63707;52.212;9.540;2024-01-27T05:20:01;28.80;;;5.95;;
75135;SDS011;63707;52.212;9.540;2024-01-27T05:22:29;30.40;;;4.60;;
75135;SDS011;63707;52.212;9.540;2024-01-27T05:24:54;23.08;;;5.53;;
75135;SDS011;63707;52.212;9.540;2024-01-27T05:27:20;32.28;;;6.30;;
75135;SDS011;63707;52.212;9.540;2024-01-27T05:29:45;25.15;;;5.18;;
75135;SDS011;63707;52.212;9.540;2024-01-27T05:32:12;21.55;;;4.50;;
75135;SDS011;63707;52.212;9.540;2024-01-27T05:34:38;21.05;;;5.45;;
75135;SDS011;63707;52.212;9.540;2024-01-27T05:37:03;28.27;;;5.65;;
75135;SDS011;63707;52.212;9.540;2024-01-27T05:39:29;32.25;;;6.93;;
75135;SDS011;63707;52.212;9.540;2024-01-27T05:41:54;32.35;;;5.68;;
75135;SDS011;63707;52.212;9.540;2024-01-27T05:44:20;20.58;;;5.05;;
75135;SDS011;63707;52.212;9.540;2024-01-27T05:46:45;32.35;;;6.40;;
75135;SDS011;63707;52.212;9.540;2024-01-27T05:49:13;34.83;;;5.60;;
75135;SDS011;63707;52.212;9.540;2024-01-27T05:51:38;31.63;;;4.65;;
75135;SDS011;63707;52.212;9.540;2024-01-27T05:54:04;28.33;;;6.05;;
75135;SDS011;63707;52.212;9.540;2024-01-27T05:56:30;29.40;;;5.70;;
75135;SDS011;63707;52.212;9.540;2024-01-27T05:58:55;28.58;;;5.70;;
75135;SDS011;63707;52.212;9.540;2024-01-27T06:01:21;34.35;;;5.95;;
75135;SDS011;63707;52.212;9.540;2024-01-27T06:03:46;29.23;;;5.93;;
75135;SDS011;63707;52.212;9.540;2024-01-27T06:06:13;31.63;;;6.10;;
75135;SDS011;63707;52.212;9.540;2024-01-27T06:08:39;29.50;;;7.18;;
75135;SDS011;63707;52.212;9.540;2024-01-27T06:11:05;33.83;;;7.07;;
75135;SDS011;63707;52.212;9.540;2024-01-27T06:13:31;26.50;;;6.32;;
75135;SDS011;63707;52.212;9.540;2024-01-27T06:15:58;35.20;;;5.53;;
75135;SDS011;63707;52.212;9.540;2024-01-27T06:18:24;30.65;;;6.10;;
75135;SDS011;63707;52.212;9.540;2024-01-27T06:20:49;33.45;;;7.28;;
75135;SDS011;63707;52.212;9.540;2024-01-27T06:23:16;37.33;;;6.88;;
75135;SDS011;63707;52.212;9.540;2024-01-27T06:25:42;53.08;;;7.63;;
75135;SDS011;63707;52.212;9.540;2024-01-27T06:28:08;35.45;;;6.75;;
75135;SDS011;63707;52.212;9.540;2024-01-27T06:30:33;30.73;;;6.45;;
75135;SDS011;63707;52.212;9.540;2024-01-27T06:32:59;35.58;;;6.65;;
75135;SDS011;63707;52.212;9.540;2024-01-27T06:35:24;22.60;;;5.88;;
75135;SDS011;63707;52.212;9.540;2024-01-27T06:37:49;29.50;;;5.97;;
75135;SDS011;63707;52.212;9.540;2024-01-27T06:40:17;34.50;;;5.82;;
75135;SDS011;63707;52.212;9.540;2024-01-27T06:42:42;30.25;;;6.30;;
75135;SDS011;63707;52.212;9.540;2024-01-27T06:45:08;33.97;;;6.82;;
75135;SDS011;63707;52.212;9.540;2024-01-27T06:47:33;30.48;;;6.10;;
75135;SDS011;63707;52.212;9.540;2024-01-27T06:49:59;23.15;;;6.63;;
75135;SDS011;63707;52.212;9.540;2024-01-27T06:52:24;26.55;;;5.82;;
75135;SDS011;63707;52.212;9.540;2024-01-27T06:54:50;27.73;;;6.13;;
75135;SDS011;63707;52.212;9.540;2024-01-27T06:57:20;39.72;;;7.40;;
75135;SDS011;63707;52.212;9.540;2024-01-27T06:59:46;30.42;;;7.13;;
75135;SDS011;63707;52.212;9.540;2024-01-27T07:02:17;28.27;;;7.00;;
75135;SDS011;63707;52.212;9.540;2024-01-27T07:04:42;28.85;;;5.97;;
75135;SDS011;63707;52.212;9.540;2024-01-27T07:07:08;31.63;;;6.93;;
75135;SDS011;63707;52.212;9.540;2024-01-27T07:09:33;32.08;;;6.38;;
75135;SDS011;63707;52.212;9.540;2024-01-27T07:11:59;37.28;;;8.57;;
75135;SDS011;63707;52.212;9.540;2024-01-27T07:14:25;40.95;;;6.50;;
75135;SDS011;63707;52.212;9.540;2024-01-27T07:16:51;27.83;;;6.43;;
75135;SDS011;63707;52.212;9.540;2024-01-27T07:19:17;27.92;;;6.28;;
75135;SDS011;63707;52.212;9.540;2024-01-27T07:21:42;25.27;;;6.47;;
75135;SDS011;63707;52.212;9.540;2024-01-27T07:24:07;30.77;;;6.55;;
75135;SDS011;63707;52.212;9.540;2024-01-27T07:26:33;27.45;;;7.00;;
75135;SDS011;63707;52.212;9.540;2024-01-27T07:28:59;35.95;;;8.05;;
75135;SDS011;63707;52.212;9.540;2024-01-27T07:31:26;30.83;;;6.93;;
75135;SDS011;63707;52.212;9.540;2024-01-27T07:33:52;29.42;;;6.65;;
75135;SDS011;63707;52.212;9.540;2024-01-27T07:36:17;30.13;;;6.93;;
75135;SDS011;63707;52.212;9.540;2024-01-27T07:38:43;38.40;;;7.57;;
75135;SDS011;63707;52.212;9.540;2024-01-27T07:41:08;36.85;;;8.43;;
75135;SDS011;63707;52.212;9.540;2024-01-27T07:43:34;31.13;;;8.48;;
75135;SDS011;63707;52.212;9.540;2024-01-27T07:45:59;35.08;;;7.68;;
75135;SDS011;63707;52.212;9.540;2024-01-27T07:48:26;33.67;;;8.30;;
75135;SDS011;63707;52.212;9.540;2024-01-27T07:50:52;23.13;;;6.85;;
75135;SDS011;63707;52.212;9.540;2024-01-27T07:53:17;31.33;;;6.68;;
75135;SDS011;63707;52.212;9.540;2024-01-27T07:55:43;26.58;;;7.72;;
75135;SDS011;63707;52.212;9.540;2024-01-27T07:58:08;21.02;;;6.22;;
75135;SDS011;63707;52.212;9.540;2024-01-27T08:00:34;27.58;;;6.63;;
75135;SDS011;63707;52.212;9.540;2024-01-27T08:02:59;26.35;;;6.03;;
75135;SDS011;63707;52.212;9.540;2024-01-27T08:05:26;20.48;;;6.43;;
75135;SDS011;63707;52.212;9.540;2024-01-27T08:07:52;25.67;;;7.88;;
75135;SDS011;63707;52.212;9.540;2024-01-27T08:10:18;33.03;;;7.55;;
75135;SDS011;63707;52.212;9.540;2024-01-27T08:12:43;29.13;;;8.02;;
75135;SDS011;63707;52.212;9.540;2024-01-27T08:15:09;19.85;;;6.03;;
75135;SDS011;63707;52.212;9.540;2024-01-27T08:17:34;28.50;;;7.20;;
75135;SDS011;63707;52.212;9.540;2024-01-27T08:20:00;20.45;;;6.10;;
75135;SDS011;63707;52.212;9.540;2024-01-27T08:22:27;24.25;;;6.57;;
75135;SDS011;63707;52.212;9.540;2024-01-27T08:24:54;28.58;;;6.30;;
75135;SDS011;63707;52.212;9.540;2024-01-27T08:27:19;24.67;;;6.18;;
75135;SDS011;63707;52.212;9.540;2024-01-27T08:29:45;23.85;;;6.68;;
75135;SDS011;63707;52.212;9.540;2024-01-27T08:32:10;18.08;;;5.38;;
75135;SDS011;63707;52.212;9.540;2024-01-27T08:34:36;23.23;;;6.43;;
75135;SDS011;63707;52.212;9.540;2024-01-27T08:37:01;21.20;;;6.20;;
75135;SDS011;63707;52.212;9.540;2024-01-27T08:39:28;21.15;;;6.75;;
75135;SDS011;63707;52.212;9.540;2024-01-27T08:41:54;32.92;;;6.60;;
75135;SDS011;63707;52.212;9.540;2024-01-27T08:44:20;18.38;;;5.60;;
75135;SDS011;63707;52.212;9.540;2024-01-27T08:46:45;19.92;;;5.90;;
75135;SDS011;63707;52.212;9.540;2024-01-27T08:49:11;22.98;;;6.80;;
75135;SDS011;63707;52.212;9.540;2024-01-27T08:51:36;19.60;;;6.40;;
75135;SDS011;63707;52.212;9.540;2024-01-27T08:54:02;25.70;;;7.57;;
75135;SDS011;63707;52.212;9.540;2024-01-27T08:56:29;22.42;;;6.60;;
75135;SDS011;63707;52.212;9.540;2024-01-27T08:58:55;24.52;;;6.22;;
75135;SDS011;63707;52.212;9.540;2024-01-27T09:01:20;30.65;;;7.03;;
75135;SDS011;63707;52.212;9.540;2024-01-27T09:03:45;25.23;;;6.38;;
75135;SDS011;63707;52.212;9.540;2024-01-27T09:06:11;20.83;;;6.68;;
75135;SDS011;63707;52.212;9.540;2024-01-27T09:08:37;23.65;;;6.45;;
75135;SDS011;63707;52.212;9.540;2024-01-27T09:11:02;24.65;;;7.18;;
75135;SDS011;63707;52.212;9.540;2024-01-27T09:13:29;24.90;;;7.32;;
75135;SDS011;63707;52.212;9.540;2024-01-27T09:15:56;21.23;;;7.25;;
75135;SDS011;63707;52.212;9.540;2024-01-27T09:18:22;19.83;;;6.72;;
75135;SDS011;63707;52.212;9.540;2024-01-27T09:20:47;24.02;;;8.15;;
75135;SDS011;63707;52.212;9.540;2024-01-27T09:23:13;28.83;;;8.77;;
75135;SDS011;63707;52.212;9.540;2024-01-27T09:25:39;27.98;;;8.23;;
75135;SDS011;63707;52.212;9.540;2024-01-27T09:28:04;25.10;;;8.23;;
75135;SDS011;63707;52.212;9.540;2024-01-27T09:30:31;19.92;;;8.25;;
75135;SDS011;63707;52.212;9.540;2024-01-27T09:32:57;24.48;;;8.75;;
75135;SDS011;63707;52.212;9.540;2024-01-27T09:35:22;28.92;;;8.60;;
75135;SDS011;63707;52.212;9.540;2024-01-27T09:37:48;30.80;;;9.27;;
75135;SDS011;63707;52.212;9.540;2024-01-27T09:40:13;25.52;;;9.48;;
75135;SDS011;63707;52.212;9.540;2024-01-27T09:42:39;21.08;;;8.77;;
75135;SDS011;63707;52.212;9.540;2024-01-27T09:45:11;27.70;;;9.77;;
75135;SDS011;63707;52.212;9.540;2024-01-27T09:47:38;27.58;;;9.73;;
75135;SDS011;63707;52.212;9.540;2024-01-27T09:50:05;29.38;;;10.13;;
75135;SDS011;63707;52.212;9.540;2024-01-27T09:52:33;26.65;;;9.38;;
75135;SDS011;63707;52.212;9.540;2024-01-27T09:54:59;34.08;;;10.68;;
75135;SDS011;63707;52.212;9.540;2024-01-27T09:57:25;29.52;;;10.02;;
75135;SDS011;63707;52.212;9.540;2024-01-27T09:59:51;24.77;;;9.98;;
75135;SDS011;63707;52.212;9.540;2024-01-27T10:02:17;29.35;;;9.98;;
75135;SDS011;63707;52.212;9.540;2024-01-27T10:04:47;31.98;;;10.13;;
75135;SDS011;63707;52.212;9.540;2024-01-27T10:07:13;27.63;;;9.52;;
75135;SDS011;63707;52.212;9.540;2024-01-27T10:09:39;26.17;;;10.82;;
75135;SDS011;63707;52.212;9.540;2024-01-27T10:12:06;33.38;;;10.07;;
75135;SDS011;63707;52.212;9.540;2024-01-27T10:14:38;28.92;;;9.90;;
75135;SDS011;63707;52.212;9.540;2024-01-27T10:17:04;39.83;;;11.82;;
75135;SDS011;63707;52.212;9.540;2024-01-27T10:19:30;34.65;;;9.82;;
75135;SDS011;63707;52.212;9.540;2024-01-27T10:22:00;36.88;;;10.93;;
75135;SDS011;63707;52.212;9.540;2024-01-27T10:24:27;22.85;;;9.48;;
75135;SDS011;63707;52.212;9.540;2024-01-27T10:26:58;31.95;;;10.35;;
75135;SDS011;63707;52.212;9.540;2024-01-27T10:29:24;26.17;;;9.75;;
75135;SDS011;63707;52.212;9.540;2024-01-27T10:31:50;26.27;;;9.60;;
75135;SDS011;63707;52.212;9.540;2024-01-27T10:34:19;21.80;;;8.95;;
75135;SDS011;63707;52.212;9.540;2024-01-27T10:36:44;29.02;;;10.15;;
75135;SDS011;63707;52.212;9.540;2024-01-27T10:39:18;31.45;;;9.30;;
75135;SDS011;63707;52.212;9.540;2024-01-27T10:41:45;25.00;;;9.55;;
75135;SDS011;63707;52.212;9.540;2024-01-27T10:44:13;27.65;;;8.93;;
75135;SDS011;63707;52.212;9.540;2024-01-27T10:46:40;33.53;;;9.60;;
75135;SDS011;63707;52.212;9.540;2024-01-27T10:49:08;26.65;;;8.85;;
75135;SDS011;63707;52.212;9.540;2024-01-27T10:51:36;28.63;;;9.77;;
75135;SDS011;63707;52.212;9.540;2024-01-27T10:54:04;32.92;;;9.15;;
75135;SDS011;63707;52.212;9.540;2024-01-27T10:56:34;27.30;;;9.02;;
75135;SDS011;63707;52.212;9.540;2024-01-27T10:59:02;33.63;;;9.55;;
75135;SDS011;63707;52.212;9.540;2024-01-27T11:01:29;34.22;;;9.27;;
75135;SDS011;63707;52.212;9.540;2024-01-27T11:03:57;22.88;;;8.88;;
75135;SDS011;63707;52.212;9.540;2024-01-27T11:06:23;33.65;;;9.07;;
75135;SDS011;63707;52.212;9.540;2024-01-27T11:08:52;23.80;;;7.30;;
75135;SDS011;63707;52.212;9.540;2024-01-27T11:11:19;23.63;;;7.65;;
75135;SDS011;63707;52.212;9.540;2024-01-27T11:13:46;23.77;;;8.55;;
75135;SDS011;63707;52.212;9.540;2024-01-27T11:16:17;24.02;;;8.13;;
75135;SDS011;63707;52.212;9.540;2024-01-27T11:18:43;28.27;;;9.10;;
75135;SDS011;63707;52.212;9.540;2024-01-27T11:21:12;32.78;;;8.10;;
75135;SDS011;63707;52.212;9.540;2024-01-27T11:23:39;24.92;;;8.13;;
75135;SDS011;63707;52.212;9.540;2024-01-27T11:26:05;26.80;;;7.55;;
75135;SDS011;63707;52.212;9.540;2024-01-27T11:28:31;21.85;;;7.57;;
75135;SDS011;63707;52.212;9.540;2024-01-27T11:30:58;24.23;;;7.88;;
75135;SDS011;63707;52.212;9.540;2024-01-27T11:33:28;26.88;;;8.82;;
75135;SDS011;63707;52.212;9.540;2024-01-27T11:35:59;31.13;;;7.80;;
75135;SDS011;63707;52.212;9.540;2024-01-27T11:38:25;28.90;;;7.25;;
75135;SDS011;63707;52.212;9.540;2024-01-27T11:40:51;28.05;;;7.70;;
75135;SDS011;63707;52.212;9.540;2024-01-27T11:43:17;26.42;;;7.57;;
75135;SDS011;63707;52.212;9.540;2024-01-27T11:45:42;24.40;;;7.63;;
75135;SDS011;63707;52.212;9.540;2024-01-27T11:48:09;29.30;;;7.30;;
75135;SDS011;63707;52.212;9.540;2024-01-27T11:50:34;22.33;;;6.93;;
75135;SDS011;63707;52.212;9.540;2024-01-27T11:53:00;25.23;;;6.72;;
75135;SDS011;63707;52.212;9.540;2024-01-27T11:55:25;27.40;;;6.72;;
75135;SDS011;63707;52.212;9.540;2024-01-27T11:57:51;19.70;;;6.70;;
75135;SDS011;63707;52.212;9.540;2024-01-27T12:00:17;24.17;;;6.25;;
75135;SDS011;63707;52.212;9.540;2024-01-27T12:02:42;32.55;;;6.03;;
75135;SDS011;63707;52.212;9.540;2024-01-27T12:05:09;25.45;;;6.00;;
75135;SDS011;63707;52.212;9.540;2024-01-27T12:07:35;17.83;;;5.75;;
75135;SDS011;63707;52.212;9.540;2024-01-27T12:10:01;19.88;;;5.25;;
75135;SDS011;63707;52.212;9.540;2024-01-27T12:12:26;20.70;;;5.65;;
75135;SDS011;63707;52.212;9.540;2024-01-27T12:14:52;17.55;;;5.65;;
75135;SDS011;63707;52.212;9.540;2024-01-27T12:17:18;22.73;;;5.72;;
75135;SDS011;63707;52.212;9.540;2024-01-27T12:19:48;13.52;;;4.63;;
75135;SDS011;63707;52.212;9.540;2024-01-27T12:22:22;16.48;;;5.00;;
75135;SDS011;63707;52.212;9.540;2024-01-27T12:24:48;18.23;;;4.65;;
75135;SDS011;63707;52.212;9.540;2024-01-27T12:27:14;26.10;;;5.32;;
75135;SDS011;63707;52.212;9.540;2024-01-27T12:29:41;19.88;;;5.45;;
75135;SDS011;63707;52.212;9.540;2024-01-27T12:32:06;24.83;;;5.32;;
75135;SDS011;63707;52.212;9.540;2024-01-27T12:34:32;20.80;;;5.55;;
75135;SDS011;63707;52.212;9.540;2024-01-27T12:36:58;15.85;;;4.63;;
75135;SDS011;63707;52.212;9.540;2024-01-27T12:39:25;24.00;;;5.43;;
75135;SDS011;63707;52.212;9.540;2024-01-27T12:41:51;18.58;;;4.88;;
75135;SDS011;63707;52.212;9.540;2024-01-27T12:44:16;21.02;;;4.72;;
75135;SDS011;63707;52.212;9.540;2024-01-27T12:46:42;18.60;;;4.60;;
75135;SDS011;63707;52.212;9.540;2024-01-27T12:49:08;18.38;;;4.70;;
75135;SDS011;63707;52.212;9.540;2024-01-27T12:51:33;19.40;;;4.45;;
75135;SDS011;63707;52.212;9.540;2024-01-27T12:53:59;20.08;;;4.43;;
75135;SDS011;63707;52.212;9.540;2024-01-27T12:56:26;26.98;;;5.75;;
75135;SDS011;63707;52.212;9.540;2024-01-27T12:58:51;12.70;;;3.78;;
75135;SDS011;63707;52.212;9.540;2024-01-27T13:01:17;19.25;;;5.00;;
75135;SDS011;63707;52.212;9.540;2024-01-27T13:03:43;12.90;;;3.47;;
75135;SDS011;63707;52.212;9.540;2024-01-27T13:06:08;27.88;;;4.38;;
75135;SDS011;63707;52.212;9.540;2024-01-27T13:08:34;17.88;;;4.47;;
75135;SDS011;63707;52.212;9.540;2024-01-27T13:10:59;14.65;;;3.60;;
75135;SDS011;63707;52.212;9.540;2024-01-27T13:13:26;17.33;;;3.65;;
75135;SDS011;63707;52.212;9.540;2024-01-27T13:15:52;12.68;;;3.20;;
75135;SDS011;63707;52.212;9.540;2024-01-27T13:18:17;18.33;;;3.67;;
75135;SDS011;63707;52.212;9.540;2024-01-27T13:20:43;15.25;;;3.53;;
75135;SDS011;63707;52.212;9.540;2024-01-27T13:23:08;17.02;;;3.25;;
75135;SDS011;63707;52.212;9.540;2024-01-27T13:25:34;16.02;;;3.13;;
75135;SDS011;63707;52.212;9.540;2024-01-27T13:28:00;16.10;;;3.42;;
75135;SDS011;63707;52.212;9.540;2024-01-27T13:30:26;17.60;;;4.13;;
75135;SDS011;63707;52.212;9.540;2024-01-27T13:32:53;12.60;;;3.65;;
75135;SDS011;63707;52.212;9.540;2024-01-27T13:35:19;19.23;;;3.33;;
75135;SDS011;63707;52.212;9.540;2024-01-27T13:37:44;20.42;;;3.83;;
75135;SDS011;63707;52.212;9.540;2024-01-27T13:40:11;19.58;;;4.07;;
75135;SDS011;63707;52.212;9.540;2024-01-27T13:42:36;18.95;;;3.83;;
75135;SDS011;63707;52.212;9.540;2024-01-27T13:45:02;13.43;;;3.60;;
75135;SDS011;63707;52.212;9.540;2024-01-27T13:47:29;17.85;;;3.33;;
75135;SDS011;63707;52.212;9.540;2024-01-27T13:49:55;14.82;;;3.17;;
75135;SDS011;63707;52.212;9.540;2024-01-27T13:52:21;12.90;;;2.90;;
75135;SDS011;63707;52.212;9.540;2024-01-27T13:54:46;14.48;;;2.90;;
75135;SDS011;63707;52.212;9.540;2024-01-27T13:57:12;17.65;;;3.42;;
75135;SDS011;63707;52.212;9.540;2024-01-27T13:59:40;13.90;;;3.28;;
75135;SDS011;63707;52.212;9.540;2024-01-27T14:02:05;17.17;;;2.88;;
75135;SDS011;63707;52.212;9.540;2024-01-27T14:04:32;18.70;;;3.65;;
75135;SDS011;63707;52.212;9.540;2024-01-27T14:06:59;17.27;;;3.40;;
75135;SDS011;63707;52.212;9.540;2024-01-27T14:09:31;9.55;;;3.13;;
75135;SDS011;63707;52.212;9.540;2024-01-27T14:11:57;14.98;;;2.78;;
75135;SDS011;63707;52.212;9.540;2024-01-27T14:14:22;17.13;;;3.10;;
75135;SDS011;63707;52.212;9.540;2024-01-27T14:16:48;21.80;;;3.35;;
75135;SDS011;63707;52.212;9.540;2024-01-27T14:19:13;14.50;;;2.80;;
75135;SDS011;63707;52.212;9.540;2024-01-27T14:21:40;16.27;;;3.38;;
75135;SDS011;63707;52.212;9.540;2024-01-27T14:24:06;19.25;;;3.05;;
75135;SDS011;63707;52.212;9.540;2024-01-27T14:26:32;14.07;;;3.33;;